Aviation Digital Data Service (ADDS)

Output produced by METARs form (1154 UTC 23 July 2014)
found at http://www.aviationweather.gov/adds/metars/
 
KALB 231136Z 2312/2412 15005KT P6SM FEW080 
     FM231300 19008KT 6SM HZ SCT050 SCT250 
     FM231600 22010KT P6SM SCT050 SCT250 
     FM231800 23010KT P6SM BKN050 BKN100 
     FM232100 27008KT P6SM BKN050 BKN100 
     PROB30 2321/2402 3SM TSRA BR BKN015CB BKN035 
     FM240200 31006KT P6SM BKN050 BKN100